createdAt,value
2018-05-24T00:00:34.783Z,15.22
2018-05-24T00:03:02.188Z,15.15
2018-05-24T00:05:29.625Z,15.22
2018-05-24T00:07:57.945Z,15.32
2018-05-24T00:10:25.246Z,15.18
2018-05-24T00:12:52.636Z,15.11
2018-05-24T00:15:20.045Z,15.02
2018-05-24T00:17:47.445Z,14.97
2018-05-24T00:20:15.268Z,15.06
2018-05-24T00:22:42.672Z,15.17
2018-05-24T00:25:10.075Z,15.18
2018-05-24T00:27:37.485Z,15.18
2018-05-24T00:30:04.888Z,15.24
2018-05-24T00:32:32.284Z,15.21
2018-05-24T00:34:59.691Z,15.23
2018-05-24T00:37:27.885Z,15.23
2018-05-24T00:39:55.288Z,15.27
2018-05-24T00:42:22.682Z,15.33
2018-05-24T00:44:50.082Z,15.37
2018-05-24T00:47:17.482Z,15.41
2018-05-24T00:49:44.896Z,15.49
2018-05-24T00:52:12.295Z,15.51
2018-05-24T00:54:39.780Z,15.51
2018-05-24T00:57:07.091Z,15.46
2018-05-24T00:59:34.483Z,15.46
2018-05-24T01:02:01.896Z,15.50
2018-05-24T01:04:30.110Z,15.47
2018-05-24T01:06:57.515Z,15.49
2018-05-24T01:09:25.136Z,15.56
2018-05-24T01:11:52.523Z,15.72
2018-05-24T01:14:19.917Z,15.89
2018-05-24T01:16:47.343Z,15.85
2018-05-24T01:19:14.728Z,15.67
2018-05-24T01:21:42.128Z,15.72
2018-05-24T01:24:09.516Z,15.78
2018-05-24T01:26:36.915Z,15.85
2018-05-24T01:29:04.307Z,15.86
2018-05-24T01:31:31.712Z,15.75
2018-05-24T01:33:59.105Z,15.80
2018-05-24T01:36:38.290Z,15.53
2018-05-24T01:39:05.701Z,15.52
2018-05-24T01:41:33.111Z,15.56
2018-05-24T01:44:01.247Z,15.63
2018-05-24T01:46:28.652Z,15.57
2018-05-24T01:48:56.044Z,15.56
2018-05-24T01:51:23.448Z,15.56
2018-05-24T01:53:50.858Z,15.38
2018-05-24T01:56:18.262Z,15.09
2018-05-24T01:58:45.653Z,14.96
2018-05-24T02:01:13.039Z,14.88
2018-05-24T02:03:40.441Z,14.90
2018-05-24T02:06:07.848Z,14.90
2018-05-24T02:08:35.240Z,14.87
2018-05-24T02:11:02.632Z,14.81
2018-05-24T02:13:30.034Z,14.74
2018-05-24T02:15:57.435Z,14.51
2018-05-24T02:18:24.840Z,14.41
2018-05-24T02:20:52.236Z,14.42
2018-05-24T02:23:19.631Z,14.60
2018-05-24T02:25:47.036Z,14.59
2018-05-24T02:28:14.445Z,14.57
2018-05-24T02:30:41.858Z,14.46
2018-05-24T02:33:09.263Z,14.48
2018-05-24T02:35:36.665Z,14.49
2018-05-24T02:38:04.543Z,14.46
2018-05-24T02:40:31.939Z,14.28
2018-05-24T02:42:59.352Z,14.26
2018-05-24T02:45:26.757Z,14.22
2018-05-24T02:47:54.160Z,14.24
2018-05-24T02:50:21.553Z,14.24
2018-05-24T02:52:48.946Z,14.26
2018-05-24T02:55:16.345Z,14.30
2018-05-24T02:57:43.742Z,14.33
2018-05-24T03:00:11.140Z,14.21
2018-05-24T03:02:38.531Z,14.27
2018-05-24T03:05:05.956Z,14.17
2018-05-24T03:07:34.355Z,14.12
2018-05-24T03:10:01.760Z,14.07
2018-05-24T03:12:29.156Z,14.01
2018-05-24T03:14:56.564Z,13.99
2018-05-24T03:17:23.963Z,14.06
2018-05-24T03:19:51.365Z,14.01
2018-05-24T03:22:18.777Z,14.12
2018-05-24T03:24:46.168Z,14.24
2018-05-24T03:27:13.583Z,14.25
2018-05-24T03:29:40.980Z,14.28
2018-05-24T03:32:08.384Z,14.35
2018-05-24T03:34:35.783Z,14.40
2018-05-24T03:37:03.168Z,14.42
2018-05-24T03:39:30.584Z,14.34
2018-05-24T03:41:57.972Z,14.37
2018-05-24T03:44:25.433Z,14.36
2018-05-24T03:46:52.771Z,14.39
2018-05-24T03:49:20.175Z,14.34
2018-05-24T03:51:47.570Z,14.28
2018-05-24T03:54:14.983Z,14.29
2018-05-24T03:56:42.388Z,14.31
2018-05-24T04:02:35.109Z,14.13
2018-05-24T04:05:03.150Z,14.12
2018-05-24T04:07:30.548Z,14.15
2018-05-24T04:09:57.939Z,14.10
2018-05-24T04:12:25.351Z,13.99
2018-05-24T04:14:52.753Z,14.01
2018-05-24T04:17:20.148Z,13.86
2018-05-24T04:19:47.558Z,13.91
2018-05-24T04:22:14.957Z,13.97
2018-05-24T04:24:42.364Z,14.03
2018-05-24T04:27:09.846Z,14.06
2018-05-24T04:29:37.946Z,14.19
2018-05-24T04:32:05.347Z,14.43
2018-05-24T04:34:32.736Z,14.46
2018-05-24T04:37:00.134Z,14.50
2018-05-24T04:39:27.527Z,14.62
2018-05-24T04:41:54.944Z,14.73
2018-05-24T04:44:22.351Z,14.71
2018-05-24T04:46:50.194Z,14.78
2018-05-24T04:49:17.584Z,14.92
2018-05-24T04:51:45.000Z,15.17
2018-05-24T04:54:12.393Z,15.43
2018-05-24T04:56:39.804Z,15.37
2018-05-24T04:59:07.188Z,15.40
2018-05-24T05:01:34.611Z,15.39
2018-05-24T05:04:01.998Z,15.41
2018-05-24T05:06:29.406Z,15.39
2018-05-24T05:08:56.817Z,15.13
2018-05-24T05:11:24.205Z,15.07
2018-05-24T05:13:51.606Z,15.17
2018-05-24T05:16:19.010Z,15.17
2018-05-24T05:18:46.485Z,15.14
2018-05-24T05:21:13.900Z,15.07
2018-05-24T05:23:41.304Z,15.15
2018-05-24T05:26:08.713Z,15.17
2018-05-24T05:28:36.112Z,15.19
2018-05-24T05:31:03.510Z,15.13
2018-05-24T05:33:30.984Z,15.14
2018-05-24T05:35:58.377Z,15.16
2018-05-24T05:38:25.788Z,15.15
2018-05-24T05:40:53.395Z,15.40
2018-05-24T05:43:20.800Z,15.30
2018-05-24T05:45:48.198Z,15.02
2018-05-24T05:48:15.621Z,15.13
2018-05-24T05:50:43.014Z,15.31
2018-05-24T05:53:10.417Z,15.50
2018-05-24T05:55:37.817Z,15.73
2018-05-24T05:58:05.222Z,15.95
2018-05-24T06:00:32.621Z,16.15
2018-05-24T06:03:00.037Z,16.32
2018-05-24T06:05:27.449Z,16.51
2018-05-24T06:07:54.866Z,16.70
2018-05-24T06:10:22.260Z,16.89
2018-05-24T06:12:49.672Z,17.14
2018-05-24T06:15:17.075Z,17.46
2018-05-24T06:17:44.473Z,17.79
2018-05-24T06:20:12.907Z,17.99
2018-05-24T06:22:40.316Z,17.88
2018-05-24T06:25:07.715Z,18.02
2018-05-24T06:27:35.129Z,18.17
2018-05-24T06:30:02.521Z,18.36
2018-05-24T06:32:29.949Z,18.43
2018-05-24T06:34:57.353Z,18.18
2018-05-24T06:37:24.760Z,18.01
2018-05-24T06:39:52.156Z,18.09
2018-05-24T06:42:19.576Z,18.05
2018-05-24T06:44:46.988Z,17.98
2018-05-24T06:47:14.380Z,18.03
2018-05-24T06:49:41.780Z,18.04
2018-05-24T06:52:09.199Z,18.09
2018-05-24T06:54:36.594Z,18.15
2018-05-24T06:57:03.997Z,18.19
2018-05-24T06:59:31.429Z,18.14
2018-05-24T07:01:59.700Z,17.72
2018-05-24T07:04:27.105Z,17.46
2018-05-24T07:06:54.509Z,17.85
2018-05-24T07:09:21.928Z,17.69
2018-05-24T07:11:50.277Z,17.33
2018-05-24T07:14:17.688Z,17.78
2018-05-24T07:16:45.773Z,18.25
2018-05-24T07:19:13.177Z,18.60
2018-05-24T07:21:40.580Z,18.48
2018-05-24T07:24:08.280Z,18.71
2018-05-24T07:26:35.693Z,19.03
2018-05-24T07:29:03.093Z,18.82
2018-05-24T07:31:30.501Z,18.78
2018-05-24T07:33:57.956Z,18.49
2018-05-24T07:36:25.341Z,18.84
2018-05-24T07:38:52.741Z,18.86
2018-05-24T07:41:20.144Z,18.80
2018-05-24T07:43:47.549Z,18.69
2018-05-24T07:46:14.944Z,18.78
2018-05-24T07:48:43.061Z,19.23
2018-05-24T07:51:10.455Z,18.99
2018-05-24T07:53:37.865Z,18.97
2018-05-24T07:56:05.279Z,19.29
2018-05-24T07:58:32.686Z,19.30
2018-05-24T08:01:00.091Z,19.70
2018-05-24T08:03:27.492Z,20.02
2018-05-24T08:05:54.906Z,19.96
2018-05-24T08:08:22.296Z,20.02
2018-05-24T19:53:18.864Z,18.98
2018-05-24T19:55:46.301Z,18.97
2018-05-24T19:58:15.021Z,18.88
2018-05-24T20:00:43.205Z,18.78
2018-05-24T20:03:11.300Z,18.71
2018-05-24T20:05:39.356Z,18.68
2018-05-24T20:08:06.966Z,18.63
2018-05-24T20:10:34.369Z,18.60
2018-05-24T20:13:01.823Z,18.61
2018-05-24T20:15:29.167Z,18.52
2018-05-24T20:17:56.584Z,18.55
2018-05-24T20:20:24.043Z,18.45
2018-05-24T20:22:51.431Z,18.26
2018-05-24T20:25:18.855Z,17.98
2018-05-24T20:27:46.236Z,17.88
2018-05-24T20:30:13.949Z,17.89
2018-05-24T20:32:42.876Z,18.02
2018-05-24T20:35:10.597Z,18.07
2018-05-24T20:37:39.818Z,17.90
2018-05-24T20:40:15.400Z,17.85
2018-05-24T20:42:45.326Z,17.68
2018-05-24T20:45:12.743Z,17.46
2018-05-24T20:47:40.142Z,17.41
2018-05-24T20:50:14.080Z,17.37
2018-05-24T20:52:41.491Z,17.47
2018-05-24T20:55:10.487Z,17.53
2018-05-24T20:57:39.928Z,17.48
2018-05-24T21:00:08.574Z,17.30
2018-05-24T21:02:39.520Z,17.05
2018-05-24T21:05:09.863Z,17.05
2018-05-24T21:07:43.428Z,17.08
2018-05-24T21:10:10.823Z,17.03
2018-05-24T21:12:41.313Z,17.03
2018-05-24T21:15:09.773Z,17.05
2018-05-24T21:20:15.380Z,16.77
2018-05-24T21:22:42.779Z,16.75
2018-05-24T21:25:10.179Z,16.79
2018-05-24T21:27:37.584Z,16.74
2018-05-24T21:30:04.997Z,16.73
2018-05-24T21:32:32.386Z,16.73
2018-05-24T21:34:59.803Z,16.67
2018-05-24T21:37:27.200Z,16.54
2018-05-24T21:39:54.620Z,16.50
2018-05-24T21:42:22.005Z,16.56
2018-05-24T21:44:49.454Z,16.44
2018-05-24T21:47:16.818Z,16.49
2018-05-24T21:49:44.226Z,16.44
2018-05-24T21:52:11.617Z,16.50
2018-05-24T21:54:39.016Z,16.56
2018-05-24T21:57:06.417Z,16.58
2018-05-24T23:11:46.003Z,15.38
2018-05-24T23:14:13.393Z,15.40
2018-05-24T23:16:40.788Z,15.41
2018-05-24T23:19:08.182Z,15.32
2018-05-24T23:21:35.592Z,15.29
2018-05-24T23:24:02.973Z,15.31
2018-05-24T23:26:30.398Z,15.29
2018-05-24T23:28:57.796Z,15.26
2018-05-24T23:31:25.216Z,15.22
2018-05-24T23:33:52.611Z,15.00
2018-05-24T23:36:20.015Z,15.19
2018-05-24T23:38:47.420Z,15.29
2018-05-24T23:41:14.824Z,15.38
2018-05-24T23:43:42.460Z,15.45
2018-05-24T23:46:10.580Z,15.18
2018-05-24T23:48:37.985Z,15.19
2018-05-24T23:51:05.370Z,15.17
2018-05-24T23:53:32.780Z,15.10
2018-05-24T23:56:00.173Z,15.27
2018-05-24T23:58:27.583Z,15.21
